LFLU METAR and TAF | Updated Today

LFLU METAR

Valence-Chabeuil Airport

Observation time: 1:52 hr. ago

LFLU 291800Z AUTO 36005KT CAVOK 14/09 Q1003

Need help? Read our tutorial on how to read METARs or read the parsed version below.

Valence-Chabeuil Airport (LFLU) METAR

  • Weather conditions on Thu, 29 Sep 2022 18:00:00 +0000 (1:52 hr. ago):
  • Present conditions: Dry
  • Clouds: Clear skies
  • Visibility: Greater than 10 km
  • Wind: 360 degrees at 5 knots
  • Temperature: 14 celsius
  • Dew point: 9 celsius
  • Pressure: 1003 millibars
  • Remarks: None


Useful to know...

LFLU TAF

Valence-Chabeuil Airport

TAF not found.